sensor_id;sensor_type;location;lat;lon;timestamp;pressure;altitude;pressure_sealevel;temperature;humidity
41334;BME280;27078;46.428;6.256;2023-03-03T00:00:25;96572.63;;;-0.03;100.00
41334;BME280;27078;46.428;6.256;2023-03-03T00:02:50;96577.97;;;-0.06;100.00
41334;BME280;27078;46.428;6.256;2023-03-03T00:05:15;96576.81;;;-0.01;100.00
41334;BME280;27078;46.428;6.256;2023-03-03T00:07:45;96570.94;;;-0.04;100.00
41334;BME280;27078;46.428;6.256;2023-03-03T00:10:11;96570.72;;;0.01;100.00
41334;BME280;27078;46.428;6.256;2023-03-03T00:12:46;96568.81;;;0.04;100.00
41334;BME280;27078;46.428;6.256;2023-03-03T00:15:17;96570.28;;;-0.09;100.00
41334;BME280;27078;46.428;6.256;2023-03-03T00:17:43;96574.41;;;-0.24;100.00
41334;BME280;27078;46.428;6.256;2023-03-03T00:25:49;96574.19;;;-0.59;100.00
41334;BME280;27078;46.428;6.256;2023-03-03T00:28:32;96580.72;;;-0.71;100.00
41334;BME280;27078;46.428;6.256;2023-03-03T00:31:14;96579.03;;;-0.92;100.00
41334;BME280;27078;46.428;6.256;2023-03-03T00:34:23;96574.13;;;-1.00;100.00
41334;BME280;27078;46.428;6.256;2023-03-03T00:36:52;96576.03;;;-1.04;100.00
41334;BME280;27078;46.428;6.256;2023-03-03T00:39:35;96577.69;;;-1.03;100.00
41334;BME280;27078;46.428;6.256;2023-03-03T00:42:01;96573.38;;;-0.82;100.00
41334;BME280;27078;46.428;6.256;2023-03-03T00:44:43;96573.47;;;-0.63;100.00
41334;BME280;27078;46.428;6.256;2023-03-03T00:50:24;96574.56;;;-0.68;100.00
41334;BME280;27078;46.428;6.256;2023-03-03T00:55:26;96581.13;;;-0.80;100.00
41334;BME280;27078;46.428;6.256;2023-03-03T00:57:52;96579.03;;;-0.72;100.00
41334;BME280;27078;46.428;6.256;2023-03-03T01:00:17;96580.72;;;-0.71;100.00
41334;BME280;27078;46.428;6.256;2023-03-03T01:02:43;96570.34;;;-0.71;100.00
41334;BME280;27078;46.428;6.256;2023-03-03T01:05:12;96569.44;;;-0.70;100.00
41334;BME280;27078;46.428;6.256;2023-03-03T01:07:38;96569.13;;;-0.83;100.00
41334;BME280;27078;46.428;6.256;2023-03-03T01:10:03;96571.72;;;-0.83;100.00
41334;BME280;27078;46.428;6.256;2023-03-03T01:12:29;96578.25;;;-0.74;100.00
41334;BME280;27078;46.428;6.256;2023-03-03T01:14:54;96574.63;;;-0.70;100.00
41334;BME280;27078;46.428;6.256;2023-03-03T01:17:20;96579.16;;;-0.54;100.00
41334;BME280;27078;46.428;6.256;2023-03-03T01:19:45;96573.47;;;-0.42;100.00
41334;BME280;27078;46.428;6.256;2023-03-03T01:22:11;96569.69;;;-0.35;100.00
41334;BME280;27078;46.428;6.256;2023-03-03T01:24:36;96576.28;;;-0.28;100.00
41334;BME280;27078;46.428;6.256;2023-03-03T01:27:01;96576.56;;;-0.34;100.00
41334;BME280;27078;46.428;6.256;2023-03-03T01:29:27;96575.44;;;-0.28;100.00
41334;BME280;27078;46.428;6.256;2023-03-03T01:31:52;96577.84;;;-0.24;100.00
41334;BME280;27078;46.428;6.256;2023-03-03T01:34:17;96574.97;;;-0.17;100.00
41334;BME280;27078;46.428;6.256;2023-03-03T01:36:43;96589.16;;;-0.25;100.00
41334;BME280;27078;46.428;6.256;2023-03-03T01:39:10;96580.22;;;-0.38;100.00
41334;BME280;27078;46.428;6.256;2023-03-03T01:41:35;96589.66;;;-0.37;100.00
41334;BME280;27078;46.428;6.256;2023-03-03T01:44:01;96581.03;;;-0.37;100.00
41334;BME280;27078;46.428;6.256;2023-03-03T01:46:31;96589.34;;;-0.50;100.00
41334;BME280;27078;46.428;6.256;2023-03-03T01:49:00;96594.06;;;-0.59;100.00
41334;BME280;27078;46.428;6.256;2023-03-03T01:51:30;96587.53;;;-0.68;100.00
41334;BME280;27078;46.428;6.256;2023-03-03T01:54:05;96588.91;;;-0.80;100.00
41334;BME280;27078;46.428;6.256;2023-03-03T01:56:35;96590.63;;;-0.80;100.00
41334;BME280;27078;46.428;6.256;2023-03-03T01:59:04;96595.94;;;-0.84;100.00
41334;BME280;27078;46.428;6.256;2023-03-03T02:01:32;96586.00;;;-0.94;100.00
41334;BME280;27078;46.428;6.256;2023-03-03T02:03:58;96590.72;;;-1.04;100.00
41334;BME280;27078;46.428;6.256;2023-03-03T02:06:28;96589.41;;;-1.14;100.00
41334;BME280;27078;46.428;6.256;2023-03-03T02:11:34;96600.00;;;-0.98;100.00
41334;BME280;27078;46.428;6.256;2023-03-03T02:14:00;96592.97;;;-0.95;100.00
41334;BME280;27078;46.428;6.256;2023-03-03T02:16:26;96595.16;;;-0.86;100.00
41334;BME280;27078;46.428;6.256;2023-03-03T02:18:51;96589.38;;;-0.92;100.00
41334;BME280;27078;46.428;6.256;2023-03-03T02:21:20;96590.03;;;-0.87;100.00
41334;BME280;27078;46.428;6.256;2023-03-03T02:26:15;96593.56;;;-0.88;100.00
41334;BME280;27078;46.428;6.256;2023-03-03T02:28:42;96582.16;;;-0.84;100.00
41334;BME280;27078;46.428;6.256;2023-03-03T02:31:13;96584.59;;;-1.01;100.00
41334;BME280;27078;46.428;6.256;2023-03-03T02:33:41;96590.25;;;-1.14;100.00
41334;BME280;27078;46.428;6.256;2023-03-03T02:36:11;96576.81;;;-1.01;100.00
41334;BME280;27078;46.428;6.256;2023-03-03T02:44:23;96587.97;;;-1.21;100.00
41334;BME280;27078;46.428;6.256;2023-03-03T02:46:50;96586.34;;;-1.24;100.00
41334;BME280;27078;46.428;6.256;2023-03-03T02:49:19;96585.31;;;-1.20;100.00
41334;BME280;27078;46.428;6.256;2023-03-03T02:51:46;96581.50;;;-1.11;100.00
41334;BME280;27078;46.428;6.256;2023-03-03T02:54:13;96582.88;;;-1.03;100.00
41334;BME280;27078;46.428;6.256;2023-03-03T02:56:39;96581.63;;;-0.92;100.00
41334;BME280;27078;46.428;6.256;2023-03-03T02:59:04;96581.41;;;-0.88;100.00
41334;BME280;27078;46.428;6.256;2023-03-03T03:01:30;96582.16;;;-0.84;100.00
41334;BME280;27078;46.428;6.256;2023-03-03T03:04:07;96578.81;;;-0.88;100.00
41334;BME280;27078;46.428;6.256;2023-03-03T03:06:33;96583.41;;;-0.94;100.00
41334;BME280;27078;46.428;6.256;2023-03-03T03:08:59;96577.44;;;-0.96;100.00
41334;BME280;27078;46.428;6.256;2023-03-03T03:11:25;96578.28;;;-0.96;100.00
41334;BME280;27078;46.428;6.256;2023-03-03T03:13:50;96578.88;;;-0.89;100.00
41334;BME280;27078;46.428;6.256;2023-03-03T03:16:16;96581.41;;;-0.88;100.00
41334;BME280;27078;46.428;6.256;2023-03-03T03:18:41;96577.94;;;-0.87;100.00
41334;BME280;27078;46.428;6.256;2023-03-03T03:21:09;96587.34;;;-0.84;100.00
41334;BME280;27078;46.428;6.256;2023-03-03T03:23:35;96582.25;;;-0.87;100.00
41334;BME280;27078;46.428;6.256;2023-03-03T03:26:01;96581.22;;;-0.83;100.00
41334;BME280;27078;46.428;6.256;2023-03-03T03:28:26;96580.03;;;-0.96;100.00
41334;BME280;27078;46.428;6.256;2023-03-03T03:30:51;96580.09;;;-0.98;100.00
41334;BME280;27078;46.428;6.256;2023-03-03T03:33:17;96588.59;;;-0.94;100.00
41334;BME280;27078;46.428;6.256;2023-03-03T03:35:42;96577.69;;;-1.03;100.00
41334;BME280;27078;46.428;6.256;2023-03-03T03:38:12;96586.66;;;-1.10;100.00
41334;BME280;27078;46.428;6.256;2023-03-03T03:40:38;96588.44;;;-1.12;100.00
41334;BME280;27078;46.428;6.256;2023-03-03T03:43:03;96589.34;;;-1.13;100.00
41334;BME280;27078;46.428;6.256;2023-03-03T03:45:28;96599.66;;;-1.11;100.00
41334;BME280;27078;46.428;6.256;2023-03-03T03:47:54;96599.25;;;-1.23;100.00
41334;BME280;27078;46.428;6.256;2023-03-03T03:50:19;96599.91;;;-1.17;100.00
41334;BME280;27078;46.428;6.256;2023-03-03T03:52:44;96599.66;;;-1.11;100.00
41334;BME280;27078;46.428;6.256;2023-03-03T03:55:10;96601.34;;;-1.10;100.00
41334;BME280;27078;46.428;6.256;2023-03-03T03:57:35;96601.66;;;-1.18;100.00
41334;BME280;27078;46.428;6.256;2023-03-03T04:00:00;96599.06;;;-1.18;100.00
41334;BME280;27078;46.428;6.256;2023-03-03T04:02:26;96605.28;;;-1.22;100.00
41334;BME280;27078;46.428;6.256;2023-03-03T04:04:51;96599.31;;;-1.24;100.00
41334;BME280;27078;46.428;6.256;2023-03-03T04:07:16;96596.72;;;-1.24;100.00
41334;BME280;27078;46.428;6.256;2023-03-03T04:09:42;96600.56;;;-1.34;100.00
41334;BME280;27078;46.428;6.256;2023-03-03T04:12:07;96607.44;;;-1.33;100.00
41334;BME280;27078;46.428;6.256;2023-03-03T04:14:32;96607.97;;;-1.47;100.00
41334;BME280;27078;46.428;6.256;2023-03-03T04:16:58;96598.81;;;-1.34;100.00
41334;BME280;27078;46.428;6.256;2023-03-03T04:19:23;96605.56;;;-1.30;100.00
41334;BME280;27078;46.428;6.256;2023-03-03T04:21:49;96605.13;;;-1.19;100.00
41334;BME280;27078;46.428;6.256;2023-03-03T04:24:15;96609.75;;;-1.04;100.00
41334;BME280;27078;46.428;6.256;2023-03-03T04:26:40;96608.09;;;-1.28;100.00
41334;BME280;27078;46.428;6.256;2023-03-03T04:29:06;96596.75;;;-1.26;100.00
41334;BME280;27078;46.428;6.256;2023-03-03T04:31:31;96602.31;;;-1.35;100.00
41334;BME280;27078;46.428;6.256;2023-03-03T04:33:57;96598.22;;;-1.40;100.00
41334;BME280;27078;46.428;6.256;2023-03-03T04:36:22;96601.34;;;-1.32;100.00
41334;BME280;27078;46.428;6.256;2023-03-03T04:38:48;96600.47;;;-1.31;100.00
41334;BME280;27078;46.428;6.256;2023-03-03T04:41:14;96603.28;;;-1.37;100.00
41334;BME280;27078;46.428;6.256;2023-03-03T04:43:39;96604.13;;;-1.37;100.00
41334;BME280;27078;46.428;6.256;2023-03-03T04:46:05;96595.56;;;-1.39;100.00
41334;BME280;27078;46.428;6.256;2023-03-03T04:48:30;96606.78;;;-1.38;100.00
41334;BME280;27078;46.428;6.256;2023-03-03T04:50:55;96605.16;;;-1.41;100.00
41334;BME280;27078;46.428;6.256;2023-03-03T04:53:21;96600.81;;;-1.40;100.00
41334;BME280;27078;46.428;6.256;2023-03-03T04:55:50;96607.78;;;-1.42;100.00
41334;BME280;27078;46.428;6.256;2023-03-03T04:58:16;96612.88;;;-1.39;100.00
41334;BME280;27078;46.428;6.256;2023-03-03T05:00:44;96604.97;;;-1.36;100.00
41334;BME280;27078;46.428;6.256;2023-03-03T05:03:11;96614.50;;;-1.37;100.00
41334;BME280;27078;46.428;6.256;2023-03-03T05:05:36;96616.16;;;-1.36;100.00
41334;BME280;27078;46.428;6.256;2023-03-03T05:08:02;96615.22;;;-1.33;100.00
41334;BME280;27078;46.428;6.256;2023-03-03T05:10:27;96616.75;;;-1.29;100.00
41334;BME280;27078;46.428;6.256;2023-03-03T05:12:53;96618.47;;;-1.28;100.00
41334;BME280;27078;46.428;6.256;2023-03-03T05:15:19;96613.41;;;-1.31;100.00
41334;BME280;27078;46.428;6.256;2023-03-03T05:17:44;96614.44;;;-1.35;100.00
41334;BME280;27078;46.428;6.256;2023-03-03T05:20:12;96616.47;;;-1.44;100.00
41334;BME280;27078;46.428;6.256;2023-03-03T05:22:38;96616.00;;;-1.31;100.00
41334;BME280;27078;46.428;6.256;2023-03-03T05:25:04;96608.69;;;-1.21;100.00
41334;BME280;27078;46.428;6.256;2023-03-03T05:27:29;96617.41;;;-1.23;100.00
41334;BME280;27078;46.428;6.256;2023-03-03T05:29:55;96627.41;;;-1.13;100.00
41334;BME280;27078;46.428;6.256;2023-03-03T05:32:20;96621.84;;;-1.26;100.00
41334;BME280;27078;46.428;6.256;2023-03-03T05:34:45;96617.22;;;-1.18;100.00
41334;BME280;27078;46.428;6.256;2023-03-03T05:37:11;96614.13;;;-1.28;100.00
41334;BME280;27078;46.428;6.256;2023-03-03T05:39:36;96617.88;;;-1.35;100.00
41334;BME280;27078;46.428;6.256;2023-03-03T05:42:02;96613.41;;;-1.31;100.00
41334;BME280;27078;46.428;6.256;2023-03-03T05:44:27;96615.28;;;-1.35;100.00
41334;BME280;27078;46.428;6.256;2023-03-03T05:46:52;96616.41;;;-1.42;100.00
41334;BME280;27078;46.428;6.256;2023-03-03T05:49:18;96618.75;;;-1.36;100.00
41334;BME280;27078;46.428;6.256;2023-03-03T05:51:43;96618.94;;;-1.40;100.00
41334;BME280;27078;46.428;6.256;2023-03-03T05:54:09;96614.72;;;-1.43;100.00
41334;BME280;27078;46.428;6.256;2023-03-03T05:56:34;96618.47;;;-1.50;100.00
41334;BME280;27078;46.428;6.256;2023-03-03T05:59:00;96616.16;;;-1.58;100.00
41334;BME280;27078;46.428;6.256;2023-03-03T06:01:25;96614.97;;;-1.49;100.00
41334;BME280;27078;46.428;6.256;2023-03-03T06:03:52;96615.78;;;-1.49;100.00
41334;BME280;27078;46.428;6.256;2023-03-03T06:06:17;96618.63;;;-1.55;100.00
41334;BME280;27078;46.428;6.256;2023-03-03T06:08:43;96621.75;;;-1.69;100.00
41334;BME280;27078;46.428;6.256;2023-03-03T06:11:09;96612.78;;;-1.60;100.00
41334;BME280;27078;46.428;6.256;2023-03-03T06:13:34;96615.38;;;-1.60;100.00
41334;BME280;27078;46.428;6.256;2023-03-03T06:16:00;96620.66;;;-1.39;100.00
41334;BME280;27078;46.428;6.256;2023-03-03T06:18:25;96619.06;;;-1.44;100.00
41334;BME280;27078;46.428;6.256;2023-03-03T06:20:54;96629.31;;;-1.40;100.00
41334;BME280;27078;46.428;6.256;2023-03-03T06:23:20;96627.06;;;-1.50;100.00
41334;BME280;27078;46.428;6.256;2023-03-03T06:25:45;96617.81;;;-1.57;100.00
41334;BME280;27078;46.428;6.256;2023-03-03T06:28:12;96632.25;;;-1.50;100.00
41334;BME280;27078;46.428;6.256;2023-03-03T06:30:37;96629.44;;;-1.44;100.00
41334;BME280;27078;46.428;6.256;2023-03-03T06:33:02;96626.28;;;-1.30;100.00
41334;BME280;27078;46.428;6.256;2023-03-03T06:35:28;96627.16;;;-1.07;100.00
41334;BME280;27078;46.428;6.256;2023-03-03T06:37:53;96632.56;;;-0.91;100.00
41334;BME280;27078;46.428;6.256;2023-03-03T06:40:18;96637.88;;;-0.94;100.00
41334;BME280;27078;46.428;6.256;2023-03-03T06:42:44;96646.09;;;-1.05;100.00
41334;BME280;27078;46.428;6.256;2023-03-03T06:45:10;96648.19;;;-1.15;100.00
41334;BME280;27078;46.428;6.256;2023-03-03T06:47:35;96656.09;;;-1.18;100.00
41334;BME280;27078;46.428;6.256;2023-03-03T06:50:01;96658.19;;;-1.28;100.00
41334;BME280;27078;46.428;6.256;2023-03-03T06:52:26;96660.34;;;-1.39;100.00
41334;BME280;27078;46.428;6.256;2023-03-03T06:54:54;96661.41;;;-1.45;100.00
41334;BME280;27078;46.428;6.256;2023-03-03T06:57:30;96659.78;;;-1.47;100.00
41334;BME280;27078;46.428;6.256;2023-03-03T06:59:59;96671.72;;;-1.43;100.00
41334;BME280;27078;46.428;6.256;2023-03-03T07:02:26;96667.78;;;-1.30;100.00
41334;BME280;27078;46.428;6.256;2023-03-03T07:04:54;96667.25;;;-1.16;100.00
41334;BME280;27078;46.428;6.256;2023-03-03T07:07:23;96676.22;;;-1.03;100.00
41334;BME280;27078;46.428;6.256;2023-03-03T07:09:52;96681.03;;;-0.93;100.00
41334;BME280;27078;46.428;6.256;2023-03-03T07:12:29;96678.91;;;-0.82;100.00
41334;BME280;27078;46.428;6.256;2023-03-03T07:15:05;96681.16;;;-0.74;100.00
41334;BME280;27078;46.428;6.256;2023-03-03T07:17:41;96683.50;;;-0.68;100.00
41334;BME280;27078;46.428;6.256;2023-03-03T07:20:18;96684.78;;;-0.56;100.00
41334;BME280;27078;46.428;6.256;2023-03-03T07:22:43;96683.94;;;-0.57;100.00
41334;BME280;27078;46.428;6.256;2023-03-03T07:25:19;96680.91;;;-0.46;100.00
41334;BME280;27078;46.428;6.256;2023-03-03T07:27:45;96682.09;;;-0.33;100.00
41334;BME280;27078;46.428;6.256;2023-03-03T07:32:41;96684.28;;;-0.24;100.00
41334;BME280;27078;46.428;6.256;2023-03-03T07:37:46;96694.16;;;-0.11;100.00
41334;BME280;27078;46.428;6.256;2023-03-03T07:40:37;96696.56;;;-0.07;100.00
41334;BME280;27078;46.428;6.256;2023-03-03T07:43:42;96693.69;;;-0.01;100.00
41334;BME280;27078;46.428;6.256;2023-03-03T07:46:15;96693.44;;;0.06;100.00
41334;BME280;27078;46.428;6.256;2023-03-03T07:48:43;96694.59;;;0.19;100.00
41334;BME280;27078;46.428;6.256;2023-03-03T07:51:22;96692.44;;;0.29;100.00
41334;BME280;27078;46.428;6.256;2023-03-03T07:56:35;96698.44;;;0.50;100.00
41334;BME280;27078;46.428;6.256;2023-03-03T07:59:23;96700.72;;;0.57;100.00
41334;BME280;27078;46.428;6.256;2023-03-03T08:01:51;96700.44;;;0.64;100.00
41334;BME280;27078;46.428;6.256;2023-03-03T08:04:45;96698.31;;;0.72;100.00
41334;BME280;27078;46.428;6.256;2023-03-03T08:07:18;96700.72;;;0.76;100.00
41334;BME280;27078;46.428;6.256;2023-03-03T08:10:00;96691.38;;;0.91;100.00
41334;BME280;27078;46.428;6.256;2023-03-03T08:12:40;96691.81;;;1.18;100.00
41334;BME280;27078;46.428;6.256;2023-03-03T08:15:19;96694.19;;;1.42;100.00
41334;BME280;27078;46.428;6.256;2023-03-03T08:17:46;96686.91;;;1.66;100.00
41334;BME280;27078;46.428;6.256;2023-03-03T08:20:43;96698.81;;;1.89;100.00
41334;BME280;27078;46.428;6.256;2023-03-03T08:23:10;96687.84;;;2.00;100.00
41334;BME280;27078;46.428;6.256;2023-03-03T08:25:35;96694.72;;;2.18;100.00
41334;BME280;27078;46.428;6.256;2023-03-03T08:28:01;96687.69;;;2.36;100.00
41334;BME280;27078;46.428;6.256;2023-03-03T08:30:26;96683.00;;;2.43;100.00
41334;BME280;27078;46.428;6.256;2023-03-03T08:32:51;96687.75;;;2.52;100.00
41334;BME280;27078;46.428;6.256;2023-03-03T08:35:17;96679.88;;;2.70;100.00
41334;BME280;27078;46.428;6.256;2023-03-03T08:37:42;96689.66;;;2.82;100.00
41334;BME280;27078;46.428;6.256;2023-03-03T08:40:08;96690.06;;;2.90;100.00
41334;BME280;27078;46.428;6.256;2023-03-03T08:42:33;96689.31;;;2.88;100.00
41334;BME280;27078;46.428;6.256;2023-03-03T08:44:59;96689.53;;;2.83;100.00
41334;BME280;27078;46.428;6.256;2023-03-03T08:47:24;96680.56;;;2.89;100.00
41334;BME280;27078;46.428;6.256;2023-03-03T08:49:49;96682.84;;;2.95;100.00
41334;BME280;27078;46.428;6.256;2023-03-03T08:52:15;96676.09;;;3.07;100.00
41334;BME280;27078;46.428;6.256;2023-03-03T08:54:40;96689.97;;;3.23;100.00
41334;BME280;27078;46.428;6.256;2023-03-03T08:57:05;96683.56;;;3.29;100.00
41334;BME280;27078;46.428;6.256;2023-03-03T08:59:32;96686.41;;;3.40;100.00
41334;BME280;27078;46.428;6.256;2023-03-03T09:02:02;96684.22;;;3.49;100.00
41334;BME280;27078;46.428;6.256;2023-03-03T09:04:27;96690.03;;;3.54;100.00
41334;BME280;27078;46.428;6.256;2023-03-03T09:06:53;96683.19;;;3.67;100.00
41334;BME280;27078;46.428;6.256;2023-03-03T09:09:19;96681.53;;;3.80;100.00
41334;BME280;27078;46.428;6.256;2023-03-03T09:11:44;96678.41;;;3.90;100.00
41334;BME280;27078;46.428;6.256;2023-03-03T09:14:14;96682.38;;;4.11;100.00
41334;BME280;27078;46.428;6.256;2023-03-03T09:16:51;96682.41;;;4.54;100.00
41334;BME280;27078;46.428;6.256;2023-03-03T09:19:18;96687.13;;;5.05;100.00
41334;BME280;27078;46.428;6.256;2023-03-03T09:21:45;96684.69;;;5.43;100.00
41334;BME280;27078;46.428;6.256;2023-03-03T09:24:23;96685.28;;;5.61;100.00
41334;BME280;27078;46.428;6.256;2023-03-03T09:26:49;96687.13;;;5.86;100.00
41334;BME280;27078;46.428;6.256;2023-03-03T09:31:53;96688.47;;;6.19;100.00
41334;BME280;27078;46.428;6.256;2023-03-03T09:34:20;96675.03;;;6.37;100.00
41334;BME280;27078;46.428;6.256;2023-03-03T09:36:49;96677.06;;;6.46;100.00
41334;BME280;27078;46.428;6.256;2023-03-03T09:39:20;96678.09;;;6.69;100.00
41334;BME280;27078;46.428;6.256;2023-03-03T09:42:06;96679.53;;;6.86;100.00
41334;BME280;27078;46.428;6.256;2023-03-03T09:47:40;96674.50;;;6.83;100.00
41334;BME280;27078;46.428;6.256;2023-03-03T09:55:58;96694.41;;;6.98;100.00
41334;BME280;27078;46.428;6.256;2023-03-03T09:58:47;96683.44;;;6.80;100.00
41334;BME280;27078;46.428;6.256;2023-03-03T10:01:40;96677.16;;;7.07;100.00
41334;BME280;27078;46.428;6.256;2023-03-03T10:17:25;96680.22;;;7.13;100.00
41334;BME280;27078;46.428;6.256;2023-03-03T10:20:11;96678.09;;;7.19;100.00
41334;BME280;27078;46.428;6.256;2023-03-03T10:30:53;96668.94;;;7.48;100.00
41334;BME280;27078;46.428;6.256;2023-03-03T10:33:31;96683.25;;;7.44;100.00
41334;BME280;27078;46.428;6.256;2023-03-03T10:39:01;96686.41;;;7.49;100.00
41334;BME280;27078;46.428;6.256;2023-03-03T10:41:55;96684.13;;;7.32;100.00
41334;BME280;27078;46.428;6.256;2023-03-03T10:44:42;96686.22;;;7.40;100.00
41334;BME280;27078;46.428;6.256;2023-03-03T10:48:08;96690.25;;;7.57;100.00
41334;BME280;27078;46.428;6.256;2023-03-03T10:50:59;96688.41;;;7.94;100.00
41334;BME280;27078;46.428;6.256;2023-03-03T10:53:42;96690.41;;;7.90;100.00
41334;BME280;27078;46.428;6.256;2023-03-03T11:01:55;96690.75;;;7.86;100.00
41334;BME280;27078;46.428;6.256;2023-03-03T11:18:48;96692.56;;;7.85;100.00
41334;BME280;27078;46.428;6.256;2023-03-03T11:21:58;96693.44;;;7.73;100.00
41334;BME280;27078;46.428;6.256;2023-03-03T11:27:58;96695.13;;;7.50;100.00
41334;BME280;27078;46.428;6.256;2023-03-03T11:33:15;96694.63;;;7.69;100.00
41334;BME280;27078;46.428;6.256;2023-03-03T11:35:54;96697.34;;;7.43;100.00
41334;BME280;27078;46.428;6.256;2023-03-03T11:39:07;96693.13;;;7.53;100.00
41334;BME280;27078;46.428;6.256;2023-03-03T11:42:00;96680.22;;;7.62;100.00
41334;BME280;27078;46.428;6.256;2023-03-03T11:44:48;96682.84;;;7.62;100.00
41334;BME280;27078;46.428;6.256;2023-03-03T12:00:28;96675.25;;;7.94;100.00
41334;BME280;27078;46.428;6.256;2023-03-03T12:03:10;96670.66;;;7.85;100.00
41334;BME280;27078;46.428;6.256;2023-03-03T12:05:41;96657.88;;;7.91;100.00
41334;BME280;27078;46.428;6.256;2023-03-03T12:11:58;96666.69;;;8.84;100.00
41334;BME280;27078;46.428;6.256;2023-03-03T12:20:48;96650.38;;;9.12;100.00
41334;BME280;27078;46.428;6.256;2023-03-03T12:23:57;96652.38;;;9.20;100.00
41334;BME280;27078;46.428;6.256;2023-03-03T12:29:30;96650.41;;;8.56;100.00
41334;BME280;27078;46.428;6.256;2023-03-03T12:32:15;96652.56;;;8.51;100.00
41334;BME280;27078;46.428;6.256;2023-03-03T12:40:29;96646.88;;;8.33;100.00
41334;BME280;27078;46.428;6.256;2023-03-03T12:48:49;96645.06;;;7.87;100.00
41334;BME280;27078;46.428;6.256;2023-03-03T12:56:40;96644.22;;;7.75;100.00
41334;BME280;27078;46.428;6.256;2023-03-03T12:59:31;96651.50;;;7.47;100.00
41334;BME280;27078;46.428;6.256;2023-03-03T13:05:20;96653.09;;;7.61;100.00
41334;BME280;27078;46.428;6.256;2023-03-03T13:10:37;96650.59;;;7.60;100.00
41334;BME280;27078;46.428;6.256;2023-03-03T13:13:41;96655.84;;;7.60;100.00
41334;BME280;27078;46.428;6.256;2023-03-03T13:16:10;96650.66;;;7.71;100.00
41334;BME280;27078;46.428;6.256;2023-03-03T13:21:53;96653.81;;;7.87;100.00
41334;BME280;27078;46.428;6.256;2023-03-03T13:27:03;96655.94;;;7.82;100.00
41334;BME280;27078;46.428;6.256;2023-03-03T13:29:44;96649.06;;;7.92;100.00
41334;BME280;27078;46.428;6.256;2023-03-03T13:32:22;96647.72;;;7.87;100.00
41334;BME280;27078;46.428;6.256;2023-03-03T13:40:04;96649.31;;;8.01;100.00
41334;BME280;27078;46.428;6.256;2023-03-03T13:42:56;96647.06;;;7.72;100.00
41334;BME280;27078;46.428;6.256;2023-03-03T13:45:34;96652.50;;;7.58;100.00
41334;BME280;27078;46.428;6.256;2023-03-03T13:51:28;96658.09;;;7.77;100.00
41334;BME280;27078;46.428;6.256;2023-03-03T13:57:15;96650.28;;;7.64;100.00
41334;BME280;27078;46.428;6.256;2023-03-03T14:08:00;96651.44;;;7.60;100.00
41334;BME280;27078;46.428;6.256;2023-03-03T14:10:38;96658.72;;;7.57;100.00
41334;BME280;27078;46.428;6.256;2023-03-03T14:13:43;96647.91;;;7.48;100.00
41334;BME280;27078;46.428;6.256;2023-03-03T14:16:20;96643.09;;;7.42;100.00
41334;BME280;27078;46.428;6.256;2023-03-03T14:18:57;96644.56;;;7.46;100.00
41334;BME280;27078;46.428;6.256;2023-03-03T14:21:34;96637.56;;;7.58;100.00
41334;BME280;27078;46.428;6.256;2023-03-03T14:26:52;96640.69;;;7.99;100.00
41334;BME280;27078;46.428;6.256;2023-03-03T14:31:53;96635.19;;;7.90;100.00
41334;BME280;27078;46.428;6.256;2023-03-03T14:36:50;96628.91;;;8.27;100.00
41334;BME280;27078;46.428;6.256;2023-03-03T14:39:29;96627.84;;;8.29;100.00
41334;BME280;27078;46.428;6.256;2023-03-03T14:41:56;96633.50;;;8.36;100.00
41334;BME280;27078;46.428;6.256;2023-03-03T14:44:52;96627.38;;;8.35;100.00
41334;BME280;27078;46.428;6.256;2023-03-03T14:47:22;96629.06;;;8.36;100.00
41334;BME280;27078;46.428;6.256;2023-03-03T14:49:50;96633.59;;;8.34;100.00
41334;BME280;27078;46.428;6.256;2023-03-03T14:52:28;96630.72;;;8.26;100.00
41334;BME280;27078;46.428;6.256;2023-03-03T14:54:56;96623.53;;;8.40;100.00
41334;BME280;27078;46.428;6.256;2023-03-03T14:57:41;96628.38;;;8.46;100.00
41334;BME280;27078;46.428;6.256;2023-03-03T15:05:25;96624.00;;;8.11;100.00
41334;BME280;27078;46.428;6.256;2023-03-03T15:07:56;96617.75;;;8.01;100.00
41334;BME280;27078;46.428;6.256;2023-03-03T15:10:34;96631.19;;;7.73;100.00
41334;BME280;27078;46.428;6.256;2023-03-03T15:16:00;96619.28;;;7.92;100.00
41334;BME280;27078;46.428;6.256;2023-03-03T15:18:30;96622.56;;;8.07;100.00
41334;BME280;27078;46.428;6.256;2023-03-03T15:21:06;96621.25;;;8.24;100.00
41334;BME280;27078;46.428;6.256;2023-03-03T15:26:20;96618.75;;;8.33;100.00
41334;BME280;27078;46.428;6.256;2023-03-03T15:29:01;96621.22;;;8.12;100.00
41334;BME280;27078;46.428;6.256;2023-03-03T15:31:42;96617.78;;;8.23;100.00
41334;BME280;27078;46.428;6.256;2023-03-03T15:34:24;96621.13;;;8.25;100.00
41334;BME280;27078;46.428;6.256;2023-03-03T15:36:58;96620.19;;;8.15;100.00
41334;BME280;27078;46.428;6.256;2023-03-03T15:42:23;96621.13;;;8.25;100.00
41334;BME280;27078;46.428;6.256;2023-03-03T15:45:30;96624.13;;;8.21;100.00
41334;BME280;27078;46.428;6.256;2023-03-03T15:56:19;96640.88;;;7.25;100.00
41334;BME280;27078;46.428;6.256;2023-03-03T15:59:01;96632.38;;;6.84;100.00
41334;BME280;27078;46.428;6.256;2023-03-03T16:01:34;96629.38;;;6.26;100.00
41334;BME280;27078;46.428;6.256;2023-03-03T16:04:14;96639.59;;;6.18;100.00
41334;BME280;27078;46.428;6.256;2023-03-03T16:25:19;96667.81;;;4.64;100.00
41334;BME280;27078;46.428;6.256;2023-03-03T16:28:10;96672.50;;;4.59;100.00
41334;BME280;27078;46.428;6.256;2023-03-03T16:42:41;96678.00;;;3.96;100.00
41334;BME280;27078;46.428;6.256;2023-03-03T16:45:50;96682.84;;;3.73;100.00
41334;BME280;27078;46.428;6.256;2023-03-03T16:49:24;96678.50;;;3.58;100.00
41334;BME280;27078;46.428;6.256;2023-03-03T16:52:36;96680.38;;;3.40;100.00
41334;BME280;27078;46.428;6.256;2023-03-03T17:41:48;96736.34;;;1.68;100.00
41334;BME280;27078;46.428;6.256;2023-03-03T17:44:44;96744.50;;;1.60;100.00
41334;BME280;27078;46.428;6.256;2023-03-03T18:01:06;96750.16;;;1.51;100.00
41334;BME280;27078;46.428;6.256;2023-03-03T18:04:20;96762.25;;;1.52;100.00
41334;BME280;27078;46.428;6.256;2023-03-03T18:10:21;96759.13;;;1.62;100.00